sensor_id;sensor_type;location;lat;lon;timestamp;P1;durP1;ratioP1;P2;durP2;ratioP2
3781;SDS011;6881;49.962;7.718;2022-12-17T00:00:46;18.83;;;10.10;;
3781;SDS011;6881;49.962;7.718;2022-12-17T00:03:30;14.37;;;8.90;;
3781;SDS011;6881;49.962;7.718;2022-12-17T00:06:15;18.57;;;8.60;;
3781;SDS011;6881;49.962;7.718;2022-12-17T00:08:59;12.27;;;5.90;;
3781;SDS011;6881;49.962;7.718;2022-12-17T00:11:43;11.30;;;6.90;;
3781;SDS011;6881;49.962;7.718;2022-12-17T00:14:28;12.97;;;6.27;;
3781;SDS011;6881;49.962;7.718;2022-12-17T00:17:12;10.90;;;5.37;;
3781;SDS011;6881;49.962;7.718;2022-12-17T00:19:55;11.50;;;6.20;;
3781;SDS011;6881;49.962;7.718;2022-12-17T00:22:39;20.87;;;8.33;;
3781;SDS011;6881;49.962;7.718;2022-12-17T00:25:23;18.10;;;5.83;;
3781;SDS011;6881;49.962;7.718;2022-12-17T00:28:11;12.53;;;6.50;;
3781;SDS011;6881;49.962;7.718;2022-12-17T00:30:55;13.27;;;6.50;;
3781;SDS011;6881;49.962;7.718;2022-12-17T00:33:39;7.93;;;7.07;;
3781;SDS011;6881;49.962;7.718;2022-12-17T00:36:23;11.60;;;5.37;;
3781;SDS011;6881;49.962;7.718;2022-12-17T00:39:07;7.73;;;4.43;;
3781;SDS011;6881;49.962;7.718;2022-12-17T00:41:51;6.20;;;5.10;;
3781;SDS011;6881;49.962;7.718;2022-12-17T00:44:35;4.53;;;2.73;;
3781;SDS011;6881;49.962;7.718;2022-12-17T00:47:19;8.83;;;4.10;;
3781;SDS011;6881;49.962;7.718;2022-12-17T00:50:03;2.73;;;2.53;;
3781;SDS011;6881;49.962;7.718;2022-12-17T00:52:47;5.13;;;3.60;;
3781;SDS011;6881;49.962;7.718;2022-12-17T00:55:31;4.03;;;3.50;;
3781;SDS011;6881;49.962;7.718;2022-12-17T00:58:15;8.83;;;4.00;;
3781;SDS011;6881;49.962;7.718;2022-12-17T01:01:00;7.60;;;4.10;;
3781;SDS011;6881;49.962;7.718;2022-12-17T01:03:44;6.33;;;4.03;;
3781;SDS011;6881;49.962;7.718;2022-12-17T01:06:28;9.60;;;4.80;;
3781;SDS011;6881;49.962;7.718;2022-12-17T01:09:11;10.20;;;6.20;;
3781;SDS011;6881;49.962;7.718;2022-12-17T01:11:55;13.97;;;5.73;;
3781;SDS011;6881;49.962;7.718;2022-12-17T01:14:39;5.03;;;4.53;;
3781;SDS011;6881;49.962;7.718;2022-12-17T01:17:23;7.43;;;6.07;;
3781;SDS011;6881;49.962;7.718;2022-12-17T01:20:07;12.63;;;4.47;;
3781;SDS011;6881;49.962;7.718;2022-12-17T01:22:52;9.13;;;5.07;;
3781;SDS011;6881;49.962;7.718;2022-12-17T01:25:36;12.80;;;5.50;;
3781;SDS011;6881;49.962;7.718;2022-12-17T01:28:23;6.53;;;4.40;;
3781;SDS011;6881;49.962;7.718;2022-12-17T01:31:08;5.17;;;3.53;;
3781;SDS011;6881;49.962;7.718;2022-12-17T01:33:53;11.50;;;6.10;;
3781;SDS011;6881;49.962;7.718;2022-12-17T01:36:37;9.00;;;6.23;;
3781;SDS011;6881;49.962;7.718;2022-12-17T01:39:20;12.53;;;6.07;;
3781;SDS011;6881;49.962;7.718;2022-12-17T01:42:04;12.90;;;7.43;;
3781;SDS011;6881;49.962;7.718;2022-12-17T01:44:56;10.73;;;4.60;;
3781;SDS011;6881;49.962;7.718;2022-12-17T01:47:45;15.43;;;7.40;;
3781;SDS011;6881;49.962;7.718;2022-12-17T01:50:33;12.03;;;7.30;;
3781;SDS011;6881;49.962;7.718;2022-12-17T01:53:20;14.80;;;6.57;;
3781;SDS011;6881;49.962;7.718;2022-12-17T01:56:06;25.07;;;10.33;;
3781;SDS011;6881;49.962;7.718;2022-12-17T01:58:50;16.60;;;7.93;;
3781;SDS011;6881;49.962;7.718;2022-12-17T02:01:34;11.07;;;5.33;;
3781;SDS011;6881;49.962;7.718;2022-12-17T02:04:18;8.47;;;4.63;;
3781;SDS011;6881;49.962;7.718;2022-12-17T02:10:12;6.70;;;4.73;;
3781;SDS011;6881;49.962;7.718;2022-12-17T02:13:07;6.30;;;4.00;;
3781;SDS011;6881;49.962;7.718;2022-12-17T02:15:58;4.77;;;2.30;;
3781;SDS011;6881;49.962;7.718;2022-12-17T02:18:48;11.17;;;5.77;;
3781;SDS011;6881;49.962;7.718;2022-12-17T02:21:34;4.27;;;3.00;;
3781;SDS011;6881;49.962;7.718;2022-12-17T02:24:24;9.50;;;4.63;;
3781;SDS011;6881;49.962;7.718;2022-12-17T02:27:13;3.33;;;1.90;;
3781;SDS011;6881;49.962;7.718;2022-12-17T02:30:00;4.60;;;2.73;;
3781;SDS011;6881;49.962;7.718;2022-12-17T02:32:46;6.83;;;3.10;;
3781;SDS011;6881;49.962;7.718;2022-12-17T02:35:32;3.27;;;3.07;;
3781;SDS011;6881;49.962;7.718;2022-12-17T02:38:19;3.63;;;1.83;;
3781;SDS011;6881;49.962;7.718;2022-12-17T02:41:09;3.17;;;2.13;;
3781;SDS011;6881;49.962;7.718;2022-12-17T02:44:07;4.40;;;3.60;;
3781;SDS011;6881;49.962;7.718;2022-12-17T02:46:52;3.00;;;2.27;;
3781;SDS011;6881;49.962;7.718;2022-12-17T02:49:37;2.50;;;2.30;;
3781;SDS011;6881;49.962;7.718;2022-12-17T02:52:21;4.50;;;3.13;;
3781;SDS011;6881;49.962;7.718;2022-12-17T02:55:06;2.37;;;1.40;;
3781;SDS011;6881;49.962;7.718;2022-12-17T02:57:50;2.70;;;1.90;;
3781;SDS011;6881;49.962;7.718;2022-12-17T03:00:34;5.43;;;1.77;;
3781;SDS011;6881;49.962;7.718;2022-12-17T03:03:18;2.93;;;2.70;;
3781;SDS011;6881;49.962;7.718;2022-12-17T03:06:02;3.27;;;2.40;;
3781;SDS011;6881;49.962;7.718;2022-12-17T03:08:46;3.50;;;2.80;;
3781;SDS011;6881;49.962;7.718;2022-12-17T03:11:30;4.60;;;2.33;;
3781;SDS011;6881;49.962;7.718;2022-12-17T03:14:14;6.97;;;2.73;;
3781;SDS011;6881;49.962;7.718;2022-12-17T03:16:58;2.33;;;2.13;;
3781;SDS011;6881;49.962;7.718;2022-12-17T03:19:42;4.10;;;2.17;;
3781;SDS011;6881;49.962;7.718;2022-12-17T03:22:26;2.23;;;2.00;;
3781;SDS011;6881;49.962;7.718;2022-12-17T03:25:10;3.13;;;1.40;;
3781;SDS011;6881;49.962;7.718;2022-12-17T03:27:54;2.60;;;1.90;;
3781;SDS011;6881;49.962;7.718;2022-12-17T03:30:38;3.27;;;2.33;;
3781;SDS011;6881;49.962;7.718;2022-12-17T03:33:22;2.90;;;2.27;;
3781;SDS011;6881;49.962;7.718;2022-12-17T03:36:06;3.77;;;3.53;;
3781;SDS011;6881;49.962;7.718;2022-12-17T03:38:50;2.77;;;2.07;;
3781;SDS011;6881;49.962;7.718;2022-12-17T03:41:34;1.37;;;1.27;;
3781;SDS011;6881;49.962;7.718;2022-12-17T03:44:18;3.60;;;1.87;;
3781;SDS011;6881;49.962;7.718;2022-12-17T03:47:01;5.13;;;3.10;;
3781;SDS011;6881;49.962;7.718;2022-12-17T03:49:45;5.07;;;2.07;;
3781;SDS011;6881;49.962;7.718;2022-12-17T03:52:29;1.77;;;1.20;;
3781;SDS011;6881;49.962;7.718;2022-12-17T03:55:13;3.00;;;2.17;;
3781;SDS011;6881;49.962;7.718;2022-12-17T03:57:57;2.90;;;1.60;;
3781;SDS011;6881;49.962;7.718;2022-12-17T04:00:43;2.57;;;2.33;;
3781;SDS011;6881;49.962;7.718;2022-12-17T04:03:26;1.50;;;1.40;;
3781;SDS011;6881;49.962;7.718;2022-12-17T04:06:10;3.80;;;1.33;;
3781;SDS011;6881;49.962;7.718;2022-12-17T04:08:54;6.57;;;2.90;;
3781;SDS011;6881;49.962;7.718;2022-12-17T04:11:38;3.00;;;2.33;;
3781;SDS011;6881;49.962;7.718;2022-12-17T04:14:22;3.37;;;1.87;;
3781;SDS011;6881;49.962;7.718;2022-12-17T04:17:06;2.00;;;1.60;;
3781;SDS011;6881;49.962;7.718;2022-12-17T04:19:50;3.67;;;2.23;;
3781;SDS011;6881;49.962;7.718;2022-12-17T04:22:34;1.13;;;1.03;;
3781;SDS011;6881;49.962;7.718;2022-12-17T04:25:18;2.20;;;1.83;;
3781;SDS011;6881;49.962;7.718;2022-12-17T04:28:02;2.03;;;1.83;;
3781;SDS011;6881;49.962;7.718;2022-12-17T04:30:46;3.90;;;1.63;;
3781;SDS011;6881;49.962;7.718;2022-12-17T04:33:30;25.50;;;2.57;;
3781;SDS011;6881;49.962;7.718;2022-12-17T04:36:14;2.27;;;2.07;;
3781;SDS011;6881;49.962;7.718;2022-12-17T04:38:58;2.63;;;1.90;;
3781;SDS011;6881;49.962;7.718;2022-12-17T04:41:42;1.00;;;1.00;;
3781;SDS011;6881;49.962;7.718;2022-12-17T04:44:26;3.03;;;2.23;;
3781;SDS011;6881;49.962;7.718;2022-12-17T04:47:10;2.83;;;1.80;;
3781;SDS011;6881;49.962;7.718;2022-12-17T04:49:54;5.73;;;1.43;;
3781;SDS011;6881;49.962;7.718;2022-12-17T04:52:37;2.60;;;2.40;;
3781;SDS011;6881;49.962;7.718;2022-12-17T04:55:38;3.00;;;2.80;;
3781;SDS011;6881;49.962;7.718;2022-12-17T04:58:22;1.63;;;1.53;;
3781;SDS011;6881;49.962;7.718;2022-12-17T05:01:05;3.27;;;2.97;;
3781;SDS011;6881;49.962;7.718;2022-12-17T05:03:49;4.30;;;2.27;;
3781;SDS011;6881;49.962;7.718;2022-12-17T05:06:33;2.27;;;2.07;;
3781;SDS011;6881;49.962;7.718;2022-12-17T05:09:17;4.07;;;1.77;;
3781;SDS011;6881;49.962;7.718;2022-12-17T05:12:01;3.20;;;1.83;;
3781;SDS011;6881;49.962;7.718;2022-12-17T05:14:46;2.20;;;2.00;;
3781;SDS011;6881;49.962;7.718;2022-12-17T05:17:30;4.13;;;2.00;;
3781;SDS011;6881;49.962;7.718;2022-12-17T05:20:14;2.27;;;2.10;;
3781;SDS011;6881;49.962;7.718;2022-12-17T05:23:04;3.30;;;2.40;;
3781;SDS011;6881;49.962;7.718;2022-12-17T05:25:54;3.67;;;2.50;;
3781;SDS011;6881;49.962;7.718;2022-12-17T05:28:51;4.50;;;2.57;;
3781;SDS011;6881;49.962;7.718;2022-12-17T05:31:34;10.10;;;3.53;;
3781;SDS011;6881;49.962;7.718;2022-12-17T05:34:18;3.37;;;1.80;;
3781;SDS011;6881;49.962;7.718;2022-12-17T05:37:02;2.00;;;1.30;;
3781;SDS011;6881;49.962;7.718;2022-12-17T05:39:46;5.73;;;3.40;;
3781;SDS011;6881;49.962;7.718;2022-12-17T05:42:30;3.73;;;3.27;;
3781;SDS011;6881;49.962;7.718;2022-12-17T05:45:14;8.20;;;5.13;;
3781;SDS011;6881;49.962;7.718;2022-12-17T05:47:58;9.23;;;4.60;;
3781;SDS011;6881;49.962;7.718;2022-12-17T05:50:47;6.73;;;3.73;;
3781;SDS011;6881;49.962;7.718;2022-12-17T05:53:32;4.60;;;3.73;;
3781;SDS011;6881;49.962;7.718;2022-12-17T05:56:16;7.80;;;4.13;;
3781;SDS011;6881;49.962;7.718;2022-12-17T05:59:07;13.60;;;3.70;;
3781;SDS011;6881;49.962;7.718;2022-12-17T06:01:51;10.43;;;4.83;;
3781;SDS011;6881;49.962;7.718;2022-12-17T06:04:39;6.83;;;3.03;;
3781;SDS011;6881;49.962;7.718;2022-12-17T06:07:23;4.70;;;3.53;;
3781;SDS011;6881;49.962;7.718;2022-12-17T06:10:07;3.60;;;3.30;;
3781;SDS011;6881;49.962;7.718;2022-12-17T06:12:55;5.67;;;3.53;;
3781;SDS011;6881;49.962;7.718;2022-12-17T06:15:39;3.00;;;2.33;;
3781;SDS011;6881;49.962;7.718;2022-12-17T06:18:23;6.83;;;3.27;;
3781;SDS011;6881;49.962;7.718;2022-12-17T06:21:07;6.10;;;5.50;;
3781;SDS011;6881;49.962;7.718;2022-12-17T06:23:51;5.87;;;3.47;;
3781;SDS011;6881;49.962;7.718;2022-12-17T06:26:35;2.20;;;2.00;;
3781;SDS011;6881;49.962;7.718;2022-12-17T06:29:19;2.33;;;2.13;;
3781;SDS011;6881;49.962;7.718;2022-12-17T06:32:03;5.53;;;2.90;;
3781;SDS011;6881;49.962;7.718;2022-12-17T06:34:47;5.10;;;2.50;;
3781;SDS011;6881;49.962;7.718;2022-12-17T06:37:31;4.00;;;2.30;;
3781;SDS011;6881;49.962;7.718;2022-12-17T06:40:15;3.50;;;2.60;;
3781;SDS011;6881;49.962;7.718;2022-12-17T06:42:59;3.50;;;2.80;;
3781;SDS011;6881;49.962;7.718;2022-12-17T06:45:43;8.37;;;3.40;;
3781;SDS011;6881;49.962;7.718;2022-12-17T06:48:27;2.63;;;2.43;;
3781;SDS011;6881;49.962;7.718;2022-12-17T06:51:11;5.43;;;3.40;;
3781;SDS011;6881;49.962;7.718;2022-12-17T06:53:55;4.13;;;3.63;;
3781;SDS011;6881;49.962;7.718;2022-12-17T06:56:39;2.80;;;2.60;;
3781;SDS011;6881;49.962;7.718;2022-12-17T06:59:27;8.17;;;4.10;;
3781;SDS011;6881;49.962;7.718;2022-12-17T07:02:11;9.03;;;4.63;;
3781;SDS011;6881;49.962;7.718;2022-12-17T07:04:55;5.07;;;3.40;;
3781;SDS011;6881;49.962;7.718;2022-12-17T07:07:39;3.60;;;3.13;;
3781;SDS011;6881;49.962;7.718;2022-12-17T07:10:23;7.33;;;3.27;;
3781;SDS011;6881;49.962;7.718;2022-12-17T07:13:07;3.67;;;2.23;;
3781;SDS011;6881;49.962;7.718;2022-12-17T07:15:52;3.77;;;3.20;;
3781;SDS011;6881;49.962;7.718;2022-12-17T07:18:37;3.93;;;2.73;;
3781;SDS011;6881;49.962;7.718;2022-12-17T07:21:21;3.63;;;3.17;;
3781;SDS011;6881;49.962;7.718;2022-12-17T07:24:05;4.03;;;3.60;;
3781;SDS011;6881;49.962;7.718;2022-12-17T07:26:49;3.77;;;2.47;;
3781;SDS011;6881;49.962;7.718;2022-12-17T07:29:33;2.23;;;1.93;;
3781;SDS011;6881;49.962;7.718;2022-12-17T07:32:17;4.80;;;2.23;;
3781;SDS011;6881;49.962;7.718;2022-12-17T07:35:01;2.90;;;2.20;;
3781;SDS011;6881;49.962;7.718;2022-12-17T07:37:45;5.00;;;3.40;;
3781;SDS011;6881;49.962;7.718;2022-12-17T07:40:29;3.80;;;2.73;;
3781;SDS011;6881;49.962;7.718;2022-12-17T07:43:13;8.03;;;4.13;;
3781;SDS011;6881;49.962;7.718;2022-12-17T07:45:58;13.90;;;4.60;;
3781;SDS011;6881;49.962;7.718;2022-12-17T07:48:42;10.03;;;4.27;;
3781;SDS011;6881;49.962;7.718;2022-12-17T07:51:26;8.57;;;4.03;;
3781;SDS011;6881;49.962;7.718;2022-12-17T07:54:10;6.10;;;4.90;;
3781;SDS011;6881;49.962;7.718;2022-12-17T07:56:54;4.73;;;4.10;;
3781;SDS011;6881;49.962;7.718;2022-12-17T07:59:38;5.50;;;3.97;;
3781;SDS011;6881;49.962;7.718;2022-12-17T08:02:21;11.73;;;4.53;;
3781;SDS011;6881;49.962;7.718;2022-12-17T08:05:05;6.50;;;4.27;;
3781;SDS011;6881;49.962;7.718;2022-12-17T08:07:49;16.00;;;7.33;;
3781;SDS011;6881;49.962;7.718;2022-12-17T08:10:33;10.90;;;7.50;;
3781;SDS011;6881;49.962;7.718;2022-12-17T08:13:17;12.80;;;7.60;;
3781;SDS011;6881;49.962;7.718;2022-12-17T08:16:01;14.10;;;5.80;;
3781;SDS011;6881;49.962;7.718;2022-12-17T08:18:45;15.87;;;7.63;;
3781;SDS011;6881;49.962;7.718;2022-12-17T08:21:29;10.20;;;6.97;;
3781;SDS011;6881;49.962;7.718;2022-12-17T08:24:13;13.60;;;10.17;;
3781;SDS011;6881;49.962;7.718;2022-12-17T08:26:57;20.23;;;9.50;;
3781;SDS011;6881;49.962;7.718;2022-12-17T08:29:41;15.83;;;8.77;;
3781;SDS011;6881;49.962;7.718;2022-12-17T08:32:25;13.00;;;7.00;;
3781;SDS011;6881;49.962;7.718;2022-12-17T08:35:09;16.50;;;9.13;;
3781;SDS011;6881;49.962;7.718;2022-12-17T08:37:52;38.27;;;20.00;;
3781;SDS011;6881;49.962;7.718;2022-12-17T08:40:46;53.13;;;25.60;;
3781;SDS011;6881;49.962;7.718;2022-12-17T08:43:30;31.23;;;15.80;;
3781;SDS011;6881;49.962;7.718;2022-12-17T08:46:14;38.53;;;18.27;;
3781;SDS011;6881;49.962;7.718;2022-12-17T08:48:58;30.73;;;16.97;;
3781;SDS011;6881;49.962;7.718;2022-12-17T08:51:42;16.50;;;9.77;;
3781;SDS011;6881;49.962;7.718;2022-12-17T08:54:26;23.33;;;11.33;;
3781;SDS011;6881;49.962;7.718;2022-12-17T08:57:09;9.57;;;6.77;;
3781;SDS011;6881;49.962;7.718;2022-12-17T08:59:53;10.00;;;9.00;;
3781;SDS011;6881;49.962;7.718;2022-12-17T09:02:37;19.73;;;11.17;;
3781;SDS011;6881;49.962;7.718;2022-12-17T09:05:21;14.80;;;10.50;;
3781;SDS011;6881;49.962;7.718;2022-12-17T09:08:06;16.83;;;10.20;;
3781;SDS011;6881;49.962;7.718;2022-12-17T09:10:51;15.50;;;11.47;;
3781;SDS011;6881;49.962;7.718;2022-12-17T09:13:35;13.03;;;10.03;;
3781;SDS011;6881;49.962;7.718;2022-12-17T09:16:19;10.47;;;8.43;;
3781;SDS011;6881;49.962;7.718;2022-12-17T09:19:03;7.20;;;6.27;;
3781;SDS011;6881;49.962;7.718;2022-12-17T09:21:47;5.33;;;4.83;;
3781;SDS011;6881;49.962;7.718;2022-12-17T09:24:31;6.80;;;5.60;;
3781;SDS011;6881;49.962;7.718;2022-12-17T09:27:15;10.70;;;6.77;;
3781;SDS011;6881;49.962;7.718;2022-12-17T09:29:59;10.40;;;8.10;;
3781;SDS011;6881;49.962;7.718;2022-12-17T09:32:43;9.03;;;7.30;;
3781;SDS011;6881;49.962;7.718;2022-12-17T09:35:27;8.03;;;7.23;;
3781;SDS011;6881;49.962;7.718;2022-12-17T09:38:12;11.27;;;8.53;;
3781;SDS011;6881;49.962;7.718;2022-12-17T09:40:57;10.00;;;9.00;;
3781;SDS011;6881;49.962;7.718;2022-12-17T09:43:59;7.90;;;6.77;;
3781;SDS011;6881;49.962;7.718;2022-12-17T09:46:48;6.80;;;5.73;;
3781;SDS011;6881;49.962;7.718;2022-12-17T09:49:37;9.07;;;6.50;;
3781;SDS011;6881;49.962;7.718;2022-12-17T09:52:28;9.93;;;6.80;;
3781;SDS011;6881;49.962;7.718;2022-12-17T09:58:20;12.67;;;9.87;;
3781;SDS011;6881;49.962;7.718;2022-12-17T10:01:08;10.03;;;7.80;;
3781;SDS011;6881;49.962;7.718;2022-12-17T10:03:58;9.87;;;6.50;;
3781;SDS011;6881;49.962;7.718;2022-12-17T10:06:42;7.67;;;6.23;;
3781;SDS011;6881;49.962;7.718;2022-12-17T10:09:26;7.17;;;6.47;;
3781;SDS011;6881;49.962;7.718;2022-12-17T10:12:13;9.70;;;7.10;;
3781;SDS011;6881;49.962;7.718;2022-12-17T10:14:58;8.63;;;7.47;;
3781;SDS011;6881;49.962;7.718;2022-12-17T10:17:42;9.97;;;7.90;;
3781;SDS011;6881;49.962;7.718;2022-12-17T10:20:36;11.83;;;8.10;;
3781;SDS011;6881;49.962;7.718;2022-12-17T10:23:26;11.20;;;7.90;;
3781;SDS011;6881;49.962;7.718;2022-12-17T10:26:21;16.40;;;9.33;;
3781;SDS011;6881;49.962;7.718;2022-12-17T10:29:19;11.57;;;8.20;;
3781;SDS011;6881;49.962;7.718;2022-12-17T10:34:59;10.83;;;7.47;;
3781;SDS011;6881;49.962;7.718;2022-12-17T10:37:44;8.27;;;6.20;;
3781;SDS011;6881;49.962;7.718;2022-12-17T10:40:28;11.40;;;8.10;;
3781;SDS011;6881;49.962;7.718;2022-12-17T10:43:24;8.27;;;6.70;;
3781;SDS011;6881;49.962;7.718;2022-12-17T10:46:23;9.90;;;6.40;;
3781;SDS011;6881;49.962;7.718;2022-12-17T10:49:16;9.37;;;7.13;;
3781;SDS011;6881;49.962;7.718;2022-12-17T10:52:03;9.33;;;6.90;;
3781;SDS011;6881;49.962;7.718;2022-12-17T10:54:56;9.20;;;6.20;;
3781;SDS011;6881;49.962;7.718;2022-12-17T10:57:43;8.13;;;5.77;;
3781;SDS011;6881;49.962;7.718;2022-12-17T11:00:29;9.77;;;7.33;;
3781;SDS011;6881;49.962;7.718;2022-12-17T11:06:34;10.13;;;6.83;;
3781;SDS011;6881;49.962;7.718;2022-12-17T11:12:07;9.70;;;7.17;;
3781;SDS011;6881;49.962;7.718;2022-12-17T11:14:53;8.77;;;7.10;;
3781;SDS011;6881;49.962;7.718;2022-12-17T11:17:39;9.80;;;7.63;;
3781;SDS011;6881;49.962;7.718;2022-12-17T11:20:38;9.27;;;8.00;;
3781;SDS011;6881;49.962;7.718;2022-12-17T11:23:27;12.83;;;8.33;;
3781;SDS011;6881;49.962;7.718;2022-12-17T11:26:12;11.40;;;8.10;;
3781;SDS011;6881;49.962;7.718;2022-12-17T11:28:57;10.10;;;7.30;;
3781;SDS011;6881;49.962;7.718;2022-12-17T11:31:48;9.13;;;7.43;;
3781;SDS011;6881;49.962;7.718;2022-12-17T11:37:47;9.00;;;6.77;;
3781;SDS011;6881;49.962;7.718;2022-12-17T11:40:39;8.23;;;7.43;;
3781;SDS011;6881;49.962;7.718;2022-12-17T11:58:39;12.33;;;8.47;;
3781;SDS011;6881;49.962;7.718;2022-12-17T12:04:52;12.17;;;6.73;;
3781;SDS011;6881;49.962;7.718;2022-12-17T12:08:02;10.80;;;8.70;;
3781;SDS011;6881;49.962;7.718;2022-12-17T12:26:19;12.90;;;9.37;;
3781;SDS011;6881;49.962;7.718;2022-12-17T12:32:09;12.63;;;9.90;;
3781;SDS011;6881;49.962;7.718;2022-12-17T12:34:58;12.83;;;9.77;;
3781;SDS011;6881;49.962;7.718;2022-12-17T12:37:42;12.20;;;9.77;;
3781;SDS011;6881;49.962;7.718;2022-12-17T12:40:30;16.43;;;10.97;;
3781;SDS011;6881;49.962;7.718;2022-12-17T12:43:25;10.53;;;9.47;;
3781;SDS011;6881;49.962;7.718;2022-12-17T12:46:25;14.50;;;10.47;;
3781;SDS011;6881;49.962;7.718;2022-12-17T12:49:18;15.70;;;10.13;;
3781;SDS011;6881;49.962;7.718;2022-12-17T12:52:07;17.27;;;10.17;;
3781;SDS011;6881;49.962;7.718;2022-12-17T12:54:53;14.83;;;10.57;;
3781;SDS011;6881;49.962;7.718;2022-12-17T13:00:33;14.60;;;10.73;;
3781;SDS011;6881;49.962;7.718;2022-12-17T13:11:38;17.40;;;12.00;;
3781;SDS011;6881;49.962;7.718;2022-12-17T13:14:05;15.13;;;11.73;;
3781;SDS011;6881;49.962;7.718;2022-12-17T13:16:40;20.47;;;13.50;;
3781;SDS011;6881;49.962;7.718;2022-12-17T13:21:42;19.40;;;11.97;;
3781;SDS011;6881;49.962;7.718;2022-12-17T13:24:09;16.30;;;13.17;;
3781;SDS011;6881;49.962;7.718;2022-12-17T13:29:18;17.90;;;11.73;;
3781;SDS011;6881;49.962;7.718;2022-12-17T13:42:37;14.47;;;7.13;;
3781;SDS011;6881;49.962;7.718;2022-12-17T13:45:02;13.93;;;8.17;;
3781;SDS011;6881;49.962;7.718;2022-12-17T13:47:30;21.60;;;9.90;;
3781;SDS011;6881;49.962;7.718;2022-12-17T13:49:57;23.40;;;10.97;;
3781;SDS011;6881;49.962;7.718;2022-12-17T13:52:25;14.23;;;8.37;;
3781;SDS011;6881;49.962;7.718;2022-12-17T13:54:51;12.60;;;7.60;;
3781;SDS011;6881;49.962;7.718;2022-12-17T13:57:19;14.23;;;8.00;;
3781;SDS011;6881;49.962;7.718;2022-12-17T13:59:49;16.80;;;9.60;;
3781;SDS011;6881;49.962;7.718;2022-12-17T14:02:29;14.57;;;10.23;;
3781;SDS011;6881;49.962;7.718;2022-12-17T14:04:57;19.03;;;7.83;;
3781;SDS011;6881;49.962;7.718;2022-12-17T14:07:24;14.07;;;8.70;;
3781;SDS011;6881;49.962;7.718;2022-12-17T14:09:50;14.17;;;8.23;;
3781;SDS011;6881;49.962;7.718;2022-12-17T14:12:17;13.63;;;8.30;;
3781;SDS011;6881;49.962;7.718;2022-12-17T14:14:50;12.13;;;7.90;;
3781;SDS011;6881;49.962;7.718;2022-12-17T14:17:41;14.37;;;8.30;;
3781;SDS011;6881;49.962;7.718;2022-12-17T14:20:10;18.50;;;9.87;;
3781;SDS011;6881;49.962;7.718;2022-12-17T14:22:41;14.40;;;8.77;;
3781;SDS011;6881;49.962;7.718;2022-12-17T14:25:18;22.77;;;11.03;;
3781;SDS011;6881;49.962;7.718;2022-12-17T14:30:22;17.03;;;9.93;;
3781;SDS011;6881;49.962;7.718;2022-12-17T14:32:50;16.17;;;8.70;;
3781;SDS011;6881;49.962;7.718;2022-12-17T14:35:23;12.77;;;8.43;;
3781;SDS011;6881;49.962;7.718;2022-12-17T14:37:49;18.27;;;9.53;;
3781;SDS011;6881;49.962;7.718;2022-12-17T14:40:15;18.63;;;10.80;;
3781;SDS011;6881;49.962;7.718;2022-12-17T14:42:40;23.17;;;12.13;;
3781;SDS011;6881;49.962;7.718;2022-12-17T14:45:19;23.50;;;13.17;;
3781;SDS011;6881;49.962;7.718;2022-12-17T14:47:54;23.47;;;12.50;;
3781;SDS011;6881;49.962;7.718;2022-12-17T14:52:50;20.97;;;12.70;;
3781;SDS011;6881;49.962;7.718;2022-12-17T14:58:06;23.70;;;15.23;;
3781;SDS011;6881;49.962;7.718;2022-12-17T15:00:33;25.43;;;13.47;;
3781;SDS011;6881;49.962;7.718;2022-12-17T15:03:01;22.30;;;13.00;;
3781;SDS011;6881;49.962;7.718;2022-12-17T15:05:26;18.30;;;11.93;;
3781;SDS011;6881;49.962;7.718;2022-12-17T15:07:52;31.07;;;15.03;;
3781;SDS011;6881;49.962;7.718;2022-12-17T15:10:19;15.97;;;10.90;;
3781;SDS011;6881;49.962;7.718;2022-12-17T15:12:45;25.80;;;10.97;;
3781;SDS011;6881;49.962;7.718;2022-12-17T15:15:13;21.33;;;12.13;;
3781;SDS011;6881;49.962;7.718;2022-12-17T15:17:39;30.07;;;12.03;;
3781;SDS011;6881;49.962;7.718;2022-12-17T15:20:05;23.67;;;11.73;;
3781;SDS011;6881;49.962;7.718;2022-12-17T15:22:31;28.03;;;14.10;;
3781;SDS011;6881;49.962;7.718;2022-12-17T15:24:56;30.10;;;14.83;;
3781;SDS011;6881;49.962;7.718;2022-12-17T15:27:21;23.00;;;12.40;;
3781;SDS011;6881;49.962;7.718;2022-12-17T15:29:47;20.00;;;12.27;;
3781;SDS011;6881;49.962;7.718;2022-12-17T15:32:16;21.63;;;11.90;;
3781;SDS011;6881;49.962;7.718;2022-12-17T15:34:42;18.03;;;10.63;;
3781;SDS011;6881;49.962;7.718;2022-12-17T15:37:08;21.87;;;12.00;;
3781;SDS011;6881;49.962;7.718;2022-12-17T15:39:34;24.90;;;12.37;;
3781;SDS011;6881;49.962;7.718;2022-12-17T15:41:59;15.33;;;9.30;;
3781;SDS011;6881;49.962;7.718;2022-12-17T15:44:43;18.60;;;9.77;;
3781;SDS011;6881;49.962;7.718;2022-12-17T15:47:08;28.27;;;10.47;;
3781;SDS011;6881;49.962;7.718;2022-12-17T15:49:33;21.13;;;13.30;;
3781;SDS011;6881;49.962;7.718;2022-12-17T15:51:59;25.87;;;11.43;;
3781;SDS011;6881;49.962;7.718;2022-12-17T15:54:24;24.93;;;12.47;;
3781;SDS011;6881;49.962;7.718;2022-12-17T15:56:53;23.83;;;12.73;;
3781;SDS011;6881;49.962;7.718;2022-12-17T15:59:18;19.93;;;11.60;;
3781;SDS011;6881;49.962;7.718;2022-12-17T16:01:44;24.50;;;9.83;;
3781;SDS011;6881;49.962;7.718;2022-12-17T16:04:09;16.93;;;10.60;;
3781;SDS011;6881;49.962;7.718;2022-12-17T16:06:34;28.80;;;14.97;;
3781;SDS011;6881;49.962;7.718;2022-12-17T16:09:00;23.93;;;11.80;;
3781;SDS011;6881;49.962;7.718;2022-12-17T16:11:25;24.13;;;12.73;;
3781;SDS011;6881;49.962;7.718;2022-12-17T16:13:53;24.30;;;12.10;;
3781;SDS011;6881;49.962;7.718;2022-12-17T16:16:20;23.13;;;11.50;;
3781;SDS011;6881;49.962;7.718;2022-12-17T16:18:46;26.57;;;12.00;;
3781;SDS011;6881;49.962;7.718;2022-12-17T16:21:11;25.63;;;13.47;;
3781;SDS011;6881;49.962;7.718;2022-12-17T16:23:36;29.43;;;13.00;;
3781;SDS011;6881;49.962;7.718;2022-12-17T16:26:03;30.10;;;16.40;;
3781;SDS011;6881;49.962;7.718;2022-12-17T16:28:29;23.33;;;13.60;;
3781;SDS011;6881;49.962;7.718;2022-12-17T16:33:32;24.33;;;15.23;;
3781;SDS011;6881;49.962;7.718;2022-12-17T16:35:58;20.93;;;14.07;;
3781;SDS011;6881;49.962;7.718;2022-12-17T16:38:23;25.77;;;12.10;;
3781;SDS011;6881;49.962;7.718;2022-12-17T16:40:49;21.43;;;12.87;;
3781;SDS011;6881;49.962;7.718;2022-12-17T16:43:19;21.00;;;12.53;;
3781;SDS011;6881;49.962;7.718;2022-12-17T16:45:46;22.67;;;13.03;;
3781;SDS011;6881;49.962;7.718;2022-12-17T16:48:12;35.10;;;17.10;;
3781;SDS011;6881;49.962;7.718;2022-12-17T16:50:38;46.67;;;22.20;;
3781;SDS011;6881;49.962;7.718;2022-12-17T16:53:03;41.13;;;21.87;;
3781;SDS011;6881;49.962;7.718;2022-12-17T16:55:28;44.87;;;24.00;;
3781;SDS011;6881;49.962;7.718;2022-12-17T16:57:54;53.33;;;24.93;;
3781;SDS011;6881;49.962;7.718;2022-12-17T17:00:21;52.20;;;25.40;;
3781;SDS011;6881;49.962;7.718;2022-12-17T17:02:46;41.53;;;25.77;;
3781;SDS011;6881;49.962;7.718;2022-12-17T17:05:11;45.97;;;26.90;;
3781;SDS011;6881;49.962;7.718;2022-12-17T17:07:37;46.37;;;24.00;;
3781;SDS011;6881;49.962;7.718;2022-12-17T17:10:02;47.67;;;27.40;;
3781;SDS011;6881;49.962;7.718;2022-12-17T17:12:28;46.27;;;21.97;;
3781;SDS011;6881;49.962;7.718;2022-12-17T17:14:54;38.97;;;18.50;;
3781;SDS011;6881;49.962;7.718;2022-12-17T17:17:20;24.77;;;16.60;;
3781;SDS011;6881;49.962;7.718;2022-12-17T17:19:45;25.43;;;17.53;;
3781;SDS011;6881;49.962;7.718;2022-12-17T17:22:10;35.87;;;19.90;;
3781;SDS011;6881;49.962;7.718;2022-12-17T17:24:36;45.33;;;23.00;;
3781;SDS011;6881;49.962;7.718;2022-12-17T17:27:01;36.90;;;24.63;;
3781;SDS011;6881;49.962;7.718;2022-12-17T17:29:26;39.67;;;26.10;;
3781;SDS011;6881;49.962;7.718;2022-12-17T17:31:52;53.40;;;27.83;;
3781;SDS011;6881;49.962;7.718;2022-12-17T17:34:17;66.07;;;34.97;;
3781;SDS011;6881;49.962;7.718;2022-12-17T17:36:42;62.03;;;31.90;;
3781;SDS011;6881;49.962;7.718;2022-12-17T17:39:08;46.57;;;25.57;;
3781;SDS011;6881;49.962;7.718;2022-12-17T17:41:34;47.93;;;24.20;;
3781;SDS011;6881;49.962;7.718;2022-12-17T17:44:00;40.10;;;23.63;;
3781;SDS011;6881;49.962;7.718;2022-12-17T17:46:28;53.87;;;28.37;;
3781;SDS011;6881;49.962;7.718;2022-12-17T17:48:54;40.93;;;25.90;;
3781;SDS011;6881;49.962;7.718;2022-12-17T17:51:22;34.30;;;21.33;;
3781;SDS011;6881;49.962;7.718;2022-12-17T17:53:50;40.47;;;23.83;;
3781;SDS011;6881;49.962;7.718;2022-12-17T17:56:18;39.20;;;23.20;;